createdAt,value
2018-04-17T00:01:16.470Z,9.32
2018-04-17T00:04:18.985Z,9.30
2018-04-17T00:07:21.452Z,9.29
2018-04-17T00:10:23.961Z,9.30
2018-04-17T00:13:26.475Z,9.27
2018-04-17T00:16:28.932Z,9.23
2018-04-17T00:19:31.551Z,9.18
2018-04-17T00:22:34.031Z,9.15
2018-04-17T00:25:36.519Z,9.12
2018-04-17T00:28:39.011Z,9.11
2018-04-17T00:31:41.555Z,9.11
2018-04-17T00:34:43.989Z,9.06
2018-04-17T00:37:46.496Z,9.02
2018-04-17T00:40:49.094Z,9.04
2018-04-17T00:43:51.560Z,9.07
2018-04-17T00:46:54.052Z,9.03
2018-04-17T00:49:56.537Z,9.00
2018-04-17T00:52:59.016Z,8.98
2018-04-17T00:56:01.489Z,8.98
2018-04-17T00:59:04.046Z,8.96
2018-04-17T01:02:06.522Z,8.92
2018-04-17T01:05:09.013Z,8.92
2018-04-17T01:08:11.541Z,8.93
2018-04-17T01:11:14.047Z,8.93
2018-04-17T01:14:16.519Z,8.87
2018-04-17T01:17:18.987Z,8.83
2018-04-17T01:20:21.490Z,8.81
2018-04-17T01:23:23.946Z,8.77
2018-04-17T01:26:26.439Z,8.81
2018-04-17T01:29:28.898Z,8.79
2018-04-17T01:32:31.351Z,8.73
2018-04-17T01:35:33.892Z,8.73
2018-04-17T01:38:36.332Z,8.66
2018-04-17T01:41:38.788Z,8.66
2018-04-17T01:44:41.233Z,8.67
2018-04-17T01:47:43.719Z,8.67
2018-04-17T01:50:46.196Z,8.64
2018-04-17T01:53:48.669Z,8.61
2018-04-17T01:56:51.134Z,8.63
2018-04-17T01:59:53.609Z,8.60
2018-04-17T02:02:56.100Z,8.57
2018-04-17T02:05:58.602Z,8.56
2018-04-17T02:09:01.120Z,8.56
2018-04-17T02:12:03.621Z,8.53
2018-04-17T02:15:06.167Z,8.53
2018-04-17T02:18:08.731Z,8.52
2018-04-17T02:21:11.175Z,8.52
2018-04-17T02:24:13.754Z,8.56
2018-04-17T02:27:16.216Z,8.53
2018-04-17T02:30:18.771Z,8.53
2018-04-17T02:33:21.232Z,8.52
2018-04-17T02:36:23.753Z,8.57
2018-04-17T02:39:26.212Z,8.58
2018-04-17T02:42:28.727Z,8.55
2018-04-17T02:45:31.222Z,8.53
2018-04-17T02:48:33.687Z,8.56
2018-04-17T02:51:36.192Z,8.58
2018-04-17T02:54:38.705Z,8.56
2018-04-17T02:57:41.161Z,8.67
2018-04-17T03:00:43.730Z,8.59
2018-04-17T03:03:46.245Z,8.65
2018-04-17T03:06:48.793Z,8.82
2018-04-17T03:09:51.284Z,8.71
2018-04-17T03:12:53.825Z,8.74
2018-04-17T03:15:56.349Z,8.65
2018-04-17T03:18:58.825Z,8.59
2018-04-17T03:22:01.324Z,8.60
2018-04-17T03:25:03.889Z,8.56
2018-04-17T03:28:06.388Z,8.52
2018-04-17T03:31:08.853Z,8.48
2018-04-17T03:34:11.356Z,8.38
2018-04-17T03:37:13.959Z,8.42
2018-04-17T03:40:16.530Z,8.56
2018-04-17T03:43:18.999Z,8.49
2018-04-17T03:46:21.518Z,8.45
2018-04-17T03:49:24.025Z,8.46
2018-04-17T03:52:26.500Z,8.43
2018-04-17T03:55:29.033Z,8.38
2018-04-17T03:58:31.562Z,8.35
2018-04-17T04:01:34.110Z,8.33
2018-04-17T04:04:36.610Z,8.31
2018-04-17T04:07:39.072Z,8.37
2018-04-17T04:10:41.574Z,8.43
2018-04-17T04:13:44.024Z,8.39
2018-04-17T04:16:58.384Z,8.34
2018-04-17T04:20:12.686Z,8.38
2018-04-17T04:23:27.159Z,8.36
2018-04-17T04:26:31.358Z,8.45
2018-04-17T04:29:33.861Z,8.42
2018-04-17T04:32:36.359Z,8.43
2018-04-17T04:35:38.953Z,8.48
2018-04-17T04:38:41.516Z,8.51
2018-04-17T04:41:44.142Z,8.56
2018-04-17T04:44:46.755Z,8.65
2018-04-17T04:47:49.258Z,8.72
2018-04-17T04:50:51.783Z,8.85
2018-04-17T04:53:54.280Z,9.14
2018-04-17T04:56:56.771Z,9.37
2018-04-17T04:59:59.268Z,9.46
2018-04-17T05:03:01.823Z,9.62
2018-04-17T05:06:04.338Z,9.78
2018-04-17T05:09:06.811Z,9.89
2018-04-17T05:12:09.334Z,9.93
2018-04-17T05:15:11.819Z,10.15
2018-04-17T05:18:14.316Z,10.73
2018-04-17T05:21:16.796Z,11.27
2018-04-17T05:24:19.306Z,12.05
2018-04-17T05:27:21.810Z,12.94
2018-04-17T05:30:24.328Z,13.40
2018-04-17T05:33:26.834Z,13.45
2018-04-17T05:36:29.296Z,14.47
2018-04-17T05:39:31.766Z,14.80
2018-04-17T05:42:34.231Z,14.40
2018-04-17T05:45:36.676Z,14.18
2018-04-17T05:48:39.214Z,14.17
2018-04-17T05:51:41.684Z,14.47
2018-04-17T05:54:44.184Z,14.49
2018-04-17T05:57:46.692Z,14.55
2018-04-17T06:00:49.136Z,13.47
2018-04-17T06:03:51.630Z,13.65
2018-04-17T06:06:54.066Z,13.07
2018-04-17T06:09:56.612Z,13.26
2018-04-17T06:12:59.115Z,13.07
2018-04-17T06:16:01.606Z,12.22
2018-04-17T06:19:04.196Z,12.46
2018-04-17T06:22:06.697Z,12.13
2018-04-17T06:25:09.177Z,12.41
2018-04-17T06:28:11.667Z,12.44
2018-04-17T06:31:14.115Z,12.49
2018-04-17T06:34:16.576Z,12.88
2018-04-17T06:37:19.020Z,12.85
2018-04-17T06:40:21.514Z,14.89
2018-04-17T06:43:23.981Z,16.40
2018-04-17T06:46:26.462Z,16.70
2018-04-17T06:49:29.000Z,16.63
2018-04-17T06:52:31.481Z,16.25
2018-04-17T06:55:33.981Z,15.95
2018-04-17T06:58:36.460Z,15.74
2018-04-17T07:01:38.996Z,14.79
2018-04-17T07:04:41.467Z,15.43
2018-04-17T07:07:44.028Z,15.23
2018-04-17T07:10:46.584Z,15.13
2018-04-17T07:13:49.248Z,15.39
2018-04-17T07:16:51.698Z,15.46
2018-04-17T07:19:54.187Z,15.47
2018-04-17T07:22:56.668Z,15.49
2018-04-17T07:25:59.206Z,15.43
2018-04-17T07:29:01.701Z,15.49
2018-04-17T07:32:04.154Z,16.02
2018-04-17T07:35:06.647Z,15.51
2018-04-17T07:38:09.131Z,15.86
2018-04-17T07:41:11.627Z,15.69
2018-04-17T07:44:14.090Z,16.06
2018-04-17T07:47:30.363Z,15.56
2018-04-17T07:50:32.823Z,15.62
2018-04-17T07:53:36.938Z,15.77
2018-04-17T07:56:39.454Z,15.66
2018-04-17T07:59:41.936Z,16.00
2018-04-17T08:02:44.481Z,15.84
2018-04-17T08:05:46.926Z,15.81
2018-04-17T08:08:49.504Z,16.10
2018-04-17T08:11:51.984Z,15.75
2018-04-17T08:14:54.507Z,15.40
2018-04-17T08:17:56.967Z,15.88
2018-04-17T08:20:59.467Z,15.58
2018-04-17T08:24:01.999Z,15.24
2018-04-17T08:27:04.457Z,15.08
2018-04-17T08:30:06.972Z,15.54
2018-04-17T08:33:09.514Z,16.02
2018-04-17T08:36:12.018Z,16.12
2018-04-17T08:39:14.517Z,15.27
2018-04-17T08:42:16.997Z,15.76
2018-04-17T08:45:19.473Z,15.46
2018-04-17T08:48:22.053Z,16.15
2018-04-17T08:51:24.604Z,15.61
2018-04-17T08:54:27.091Z,15.73
2018-04-17T08:57:29.631Z,15.65
2018-04-17T09:00:32.113Z,15.71
2018-04-17T09:03:34.608Z,15.91
2018-04-17T09:06:37.083Z,16.11
2018-04-17T09:09:39.637Z,15.92
2018-04-17T09:12:42.091Z,16.16
2018-04-17T09:15:44.568Z,16.44
2018-04-17T09:18:47.128Z,16.70
2018-04-17T09:21:49.681Z,16.75
2018-04-17T09:24:52.249Z,16.16
2018-04-17T09:27:54.716Z,16.12
2018-04-17T09:30:57.229Z,16.08
2018-04-17T09:33:59.740Z,16.71
2018-04-17T09:37:02.245Z,16.77
2018-04-17T09:40:04.704Z,16.73
2018-04-17T09:43:07.193Z,16.90
2018-04-17T09:46:09.669Z,16.54
2018-04-17T09:49:12.172Z,16.85
2018-04-17T09:52:14.650Z,17.25
2018-04-17T09:55:17.103Z,17.47
2018-04-17T09:58:19.593Z,17.62
2018-04-17T10:01:22.093Z,17.32
2018-04-17T10:04:24.644Z,17.31
2018-04-17T10:07:27.142Z,17.44
2018-04-17T10:10:29.659Z,17.04
2018-04-17T10:13:32.236Z,17.55
2018-04-17T10:16:34.699Z,17.47
2018-04-17T10:19:37.197Z,17.94
2018-04-17T10:22:39.712Z,18.44
2018-04-17T10:25:42.208Z,18.38
2018-04-17T10:28:44.691Z,18.23
2018-04-17T10:31:47.196Z,18.04
2018-04-17T10:34:49.666Z,18.38
2018-04-17T10:37:52.167Z,18.56
2018-04-17T10:40:54.667Z,18.62
2018-04-17T10:43:57.150Z,17.98
2018-04-17T10:46:59.598Z,18.06
2018-04-17T10:50:02.138Z,18.49
2018-04-17T10:53:04.649Z,17.70
2018-04-17T10:56:07.176Z,18.23
2018-04-17T10:59:09.676Z,18.07
2018-04-17T11:02:12.144Z,18.04
2018-04-17T11:05:14.659Z,18.21
2018-04-17T11:08:17.122Z,17.85
2018-04-17T11:11:19.699Z,18.15
2018-04-17T11:14:22.260Z,18.67
2018-04-17T11:17:24.819Z,18.53
2018-04-17T11:20:27.379Z,17.93
2018-04-17T11:23:29.879Z,18.10
2018-04-17T11:26:32.344Z,18.44
2018-04-17T11:29:34.866Z,18.47
2018-04-17T11:32:37.314Z,18.58
2018-04-17T11:35:39.899Z,18.22
2018-04-17T11:38:42.389Z,18.36
2018-04-17T11:41:44.898Z,18.62
2018-04-17T11:44:47.355Z,18.91
2018-04-17T11:47:49.819Z,19.15
2018-04-17T11:50:52.324Z,19.07
2018-04-17T11:53:54.835Z,19.29
2018-04-17T11:56:57.372Z,18.50
2018-04-17T11:59:59.829Z,18.70
2018-04-17T12:03:06.105Z,18.82
2018-04-17T12:06:08.665Z,18.48
2018-04-17T12:09:11.178Z,19.02
2018-04-17T12:12:13.668Z,18.78
2018-04-17T12:15:16.156Z,18.83
2018-04-17T12:18:18.691Z,18.81
2018-04-17T12:21:21.210Z,19.27
2018-04-17T12:24:23.654Z,19.23
2018-04-17T12:27:26.144Z,19.44
2018-04-17T12:30:28.620Z,19.25
2018-04-17T12:33:31.138Z,19.40
2018-04-17T12:36:33.647Z,19.61
2018-04-17T12:39:36.139Z,19.50
2018-04-17T12:42:38.600Z,19.73
2018-04-17T12:45:41.111Z,19.38
2018-04-17T12:48:43.574Z,19.23
2018-04-17T12:51:46.077Z,19.71
2018-04-17T12:54:48.563Z,19.90
2018-04-17T12:57:51.039Z,19.82
2018-04-17T13:00:53.550Z,19.97
2018-04-17T13:03:56.028Z,20.16
2018-04-17T13:06:58.572Z,19.98
2018-04-17T13:10:01.039Z,19.96
2018-04-17T13:13:03.539Z,20.25
2018-04-17T13:16:06.102Z,19.41
2018-04-17T13:19:08.614Z,19.91
2018-04-17T13:22:11.105Z,19.87
2018-04-17T13:25:13.589Z,20.00
2018-04-17T13:28:16.091Z,19.88
2018-04-17T13:31:18.535Z,20.03
2018-04-17T13:34:21.070Z,20.31
2018-04-17T13:37:23.532Z,20.50
2018-04-17T13:40:26.021Z,20.56
2018-04-17T13:43:28.543Z,20.19
2018-04-17T13:46:31.056Z,20.44
2018-04-17T13:49:33.578Z,20.58
2018-04-17T13:52:36.105Z,20.40
2018-04-17T13:55:38.576Z,20.45
2018-04-17T13:58:41.060Z,20.29
2018-04-17T14:01:43.622Z,20.69
2018-04-17T14:04:46.110Z,20.25
2018-04-17T14:07:48.609Z,20.88
2018-04-17T14:10:51.206Z,20.65
2018-04-17T14:13:53.763Z,20.96
2018-04-17T14:16:56.254Z,20.51
2018-04-17T14:19:58.721Z,20.56
2018-04-17T14:23:01.226Z,20.57
2018-04-17T14:26:03.734Z,20.65
2018-04-17T14:29:06.234Z,20.41
2018-04-17T14:32:08.835Z,20.55
2018-04-17T14:35:11.361Z,20.66
2018-04-17T14:38:13.948Z,21.20
2018-04-17T14:41:16.428Z,21.27
2018-04-17T14:44:18.996Z,21.18
2018-04-17T14:47:21.525Z,21.17
2018-04-17T14:50:23.982Z,20.86
2018-04-17T14:53:26.477Z,21.24
2018-04-17T14:56:28.983Z,21.32
2018-04-17T14:59:31.580Z,21.22
2018-04-17T15:02:36.524Z,20.98
2018-04-17T15:05:39.241Z,21.02
2018-04-17T15:08:41.767Z,21.30
2018-04-17T15:11:44.235Z,21.15
2018-04-17T15:14:46.723Z,21.20
2018-04-17T15:17:49.223Z,20.69
2018-04-17T15:20:51.683Z,20.58
2018-04-17T15:23:54.248Z,20.90
2018-04-17T15:26:56.697Z,20.09
2018-04-17T15:29:59.477Z,20.30
2018-04-17T15:33:01.942Z,20.75
2018-04-17T15:36:04.423Z,20.32
2018-04-17T15:39:06.962Z,20.42
2018-04-17T15:42:09.417Z,20.65
2018-04-17T15:45:11.987Z,20.66
2018-04-17T15:48:14.502Z,21.20
2018-04-17T15:51:17.013Z,21.32
2018-04-17T15:54:19.482Z,20.88
2018-04-17T15:57:22.032Z,21.29
2018-04-17T16:00:24.593Z,21.31
2018-04-17T16:03:27.162Z,21.13
2018-04-17T16:06:29.721Z,20.96
2018-04-17T16:09:32.188Z,21.09
2018-04-17T16:12:34.696Z,20.98
2018-04-17T16:15:37.132Z,20.99
2018-04-17T16:18:39.609Z,20.76
2018-04-17T16:21:42.113Z,20.87
2018-04-17T16:24:44.649Z,21.07
2018-04-17T16:27:47.133Z,21.16
2018-04-17T16:30:49.634Z,21.05
2018-04-17T16:33:52.130Z,21.08
2018-04-17T16:36:54.613Z,21.11
2018-04-17T16:39:57.094Z,20.88
2018-04-17T16:42:59.571Z,20.83
2018-04-17T16:46:02.080Z,20.68
2018-04-17T16:49:04.679Z,20.64
2018-04-17T16:52:07.144Z,20.64
2018-04-17T16:55:09.611Z,20.57
2018-04-17T16:58:12.172Z,20.37
2018-04-17T17:01:14.739Z,20.31
2018-04-17T17:04:17.169Z,20.31
2018-04-17T17:07:19.688Z,20.18
2018-04-17T17:10:22.213Z,20.12
2018-04-17T17:13:24.744Z,20.01
2018-04-17T17:16:27.336Z,20.06
2018-04-17T17:19:29.899Z,20.21
2018-04-17T17:22:32.559Z,20.28
2018-04-17T17:25:35.106Z,20.30
2018-04-17T17:28:37.590Z,20.16
2018-04-17T17:31:40.099Z,20.14
2018-04-17T17:34:42.624Z,20.20
2018-04-17T17:37:45.143Z,20.00
2018-04-17T17:40:47.693Z,19.95
2018-04-17T17:43:50.307Z,19.87
2018-04-17T17:46:52.825Z,19.83
2018-04-17T17:49:55.322Z,19.88
2018-04-17T17:52:57.894Z,19.75
2018-04-17T17:56:00.461Z,19.69
2018-04-17T17:59:03.031Z,19.39
2018-04-17T18:02:05.564Z,19.07
2018-04-17T18:05:08.145Z,18.73
2018-04-17T18:08:10.828Z,18.48
2018-04-17T18:11:13.523Z,18.22
2018-04-17T18:14:16.032Z,17.99
2018-04-17T18:17:18.531Z,17.79
2018-04-17T18:20:21.044Z,17.52
2018-04-17T18:23:23.526Z,17.28
2018-04-17T18:26:26.100Z,17.15
2018-04-17T18:29:28.569Z,17.00
2018-04-17T18:32:31.103Z,16.89
2018-04-17T18:35:33.599Z,16.85
2018-04-17T18:38:36.141Z,16.77
2018-04-17T18:41:38.621Z,16.69
2018-04-17T18:44:41.155Z,16.63
2018-04-17T18:47:43.685Z,16.57
2018-04-17T18:50:46.166Z,16.55
2018-04-17T18:53:48.708Z,16.48
2018-04-17T18:56:51.236Z,16.37
2018-04-17T18:59:53.785Z,16.16
2018-04-17T19:02:56.365Z,16.07
2018-04-17T19:05:58.861Z,16.05
2018-04-17T19:09:01.378Z,15.99
2018-04-17T19:12:03.899Z,16.00
2018-04-17T19:15:06.587Z,15.97
2018-04-17T19:18:09.234Z,15.84
2018-04-17T19:21:11.786Z,15.85
2018-04-17T19:24:14.368Z,15.84
2018-04-17T19:27:16.919Z,15.81
2018-04-17T19:30:19.512Z,15.72
2018-04-17T19:33:22.965Z,15.67
2018-04-17T19:36:25.503Z,15.56
2018-04-17T19:39:28.042Z,15.53
2018-04-17T19:42:30.509Z,15.59
2018-04-17T19:45:33.272Z,15.63
2018-04-17T19:48:35.788Z,15.73
2018-04-17T19:51:38.291Z,15.67
2018-04-17T19:54:40.880Z,15.73
2018-04-17T19:57:44.259Z,15.63
2018-04-17T20:00:49.674Z,15.73
2018-04-17T20:03:52.453Z,15.62
2018-04-17T20:06:54.943Z,15.51
2018-04-17T20:09:57.465Z,15.42
2018-04-17T20:13:00.040Z,15.28
2018-04-17T20:16:02.516Z,15.24
2018-04-17T20:19:05.157Z,15.18
2018-04-17T20:22:07.679Z,15.13
2018-04-17T20:25:10.163Z,15.12
2018-04-17T20:28:12.670Z,14.97
2018-04-17T20:31:15.246Z,14.87
2018-04-17T20:34:17.730Z,14.83
2018-04-17T20:37:20.247Z,14.97
2018-04-17T20:40:22.763Z,15.07
2018-04-17T20:43:25.243Z,15.07
2018-04-17T20:46:27.793Z,15.01
2018-04-17T20:49:30.253Z,14.99
2018-04-17T20:52:32.765Z,15.00
2018-04-17T20:55:35.268Z,15.08
2018-04-17T20:58:37.800Z,14.97
2018-04-17T21:01:40.275Z,15.04
2018-04-17T21:04:42.776Z,14.97
2018-04-17T21:07:45.230Z,15.01
2018-04-17T21:10:47.761Z,15.00
2018-04-17T21:13:50.238Z,14.98
2018-04-17T21:16:52.742Z,14.97
2018-04-17T21:19:55.233Z,14.94
2018-04-17T21:22:57.815Z,14.97
2018-04-17T21:26:00.347Z,14.93
2018-04-17T21:29:02.823Z,14.81
2018-04-17T21:32:05.316Z,14.79
2018-04-17T21:35:07.820Z,14.77
2018-04-17T21:38:10.312Z,14.88
2018-04-17T21:41:12.867Z,14.92
2018-04-17T21:44:15.336Z,14.91
2018-04-17T21:47:17.875Z,14.89
2018-04-17T21:50:20.386Z,14.95
2018-04-17T21:53:22.924Z,14.89
2018-04-17T21:56:25.423Z,14.88
2018-04-17T21:59:27.926Z,14.79
2018-04-17T22:02:30.424Z,14.73
2018-04-17T22:05:32.896Z,14.70
2018-04-17T22:08:35.418Z,14.70
2018-04-17T22:11:37.963Z,14.84
2018-04-17T22:14:40.509Z,14.86
2018-04-17T22:17:42.954Z,14.97
2018-04-17T22:20:45.442Z,14.97
2018-04-17T22:23:47.916Z,15.14
2018-04-17T22:26:50.542Z,15.10
2018-04-17T22:29:52.974Z,15.04
2018-04-17T22:32:55.440Z,15.08
2018-04-17T22:35:57.917Z,15.12
2018-04-17T22:39:00.508Z,15.12
2018-04-17T22:42:02.986Z,15.00
2018-04-17T22:45:05.477Z,14.91
2018-04-17T22:48:07.965Z,14.84
2018-04-17T22:51:10.522Z,15.00
2018-04-17T22:54:12.985Z,14.88
2018-04-17T22:57:15.481Z,14.78
2018-04-17T23:00:17.941Z,14.65
2018-04-17T23:03:20.446Z,14.70
2018-04-17T23:06:22.990Z,14.54
2018-04-17T23:09:25.465Z,14.44
2018-04-17T23:12:27.957Z,14.35
2018-04-17T23:15:30.402Z,14.30
2018-04-17T23:18:32.866Z,14.36
2018-04-17T23:21:35.355Z,14.35
2018-04-17T23:24:37.832Z,14.35
2018-04-17T23:27:40.412Z,14.33
2018-04-17T23:30:42.986Z,14.50
2018-04-17T23:33:45.472Z,14.37
2018-04-17T23:36:47.923Z,14.33
2018-04-17T23:39:50.443Z,14.23
2018-04-17T23:42:52.957Z,14.15
2018-04-17T23:45:55.455Z,14.03
2018-04-17T23:48:57.971Z,13.95
2018-04-17T23:52:00.500Z,13.98
2018-04-17T23:55:02.998Z,13.97
2018-04-17T23:58:05.448Z,13.84
